Time;durP1;ratioP1;P1;durP2;ratioP2;P2;SDS_P1;SDS_P2;PMS_P1;PMS_P2;Temp;Humidity;BMP_temperature;BMP_pressure;BME280_temperature;BME280_humidity;BME280_pressure;Samples;Min_cycle;Max_cycle;Signal;HPM_P1;HPM_P2
2021/08/25 00:00:26;;;;;;;;;;;;;;;13.71;76.75;100738.30;1655643;85;20187;-87
2021/08/25 00:02:52;;;;;;;;;;;;;;;13.60;77.01;100742.09;1656059;84;20230;-85
2021/08/25 00:05:20;;;;;;;;;;;;;;;13.67;76.85;100736.14;1655834;86;21284;-85
2021/08/25 00:07:45;;;;;;;;;;;;;;;13.52;77.64;100735.95;1640041;86;20588;-86
2021/08/25 00:10:11;;;;;;;;;;;;;;;13.69;77.61;100731.48;1657776;86;22063;-85
2021/08/25 00:12:37;;;;;;;;;;;;;;;13.72;76.94;100732.48;1654919;85;20127;-88
2021/08/25 00:15:04;;;;;;;;;;;;;;;13.72;76.85;100733.81;1656334;85;20265;-88
2021/08/25 00:17:30;;;;;;;;;;;;;;;13.55;78.02;100733.80;1653756;86;20218;-89
2021/08/25 00:19:55;;;;;;;;;;;;;;;13.49;77.74;100727.80;1657943;85;20131;-84
2021/08/25 00:22:23;;;;;;;;;;;;;;;13.46;77.89;100729.45;1658925;84;21095;-88
2021/08/25 00:24:48;;;;;;;;;;;;;;;13.50;77.68;100730.80;1657850;85;20192;-87
2021/08/25 00:27:14;;;;;;;;;;;;;;;13.44;78.16;100730.12;1657417;85;20162;-86
2021/08/25 00:29:41;;;;;;;;;;;;;;;13.41;78.46;100728.60;1657165;85;20735;-88
2021/08/25 00:32:07;;;;;;;;;;;;;;;13.42;78.26;100721.47;1654902;84;20211;-87
2021/08/25 00:34:32;;;;;;;;;;;;;;;13.38;79.02;100717.49;1657686;85;21094;-87
2021/08/25 00:36:58;;;;;;;;;;;;;;;13.36;78.55;100711.49;1656857;85;20135;-87
2021/08/25 00:39:24;;;;;;;;;;;;;;;13.40;78.43;100714.99;1654769;85;20310;-88
2021/08/25 00:41:49;;;;;;;;;;;;;;;13.29;78.79;100710.78;1658609;85;20625;-86
2021/08/25 00:44:18;;;;;;;;;;;;;;;13.27;79.35;100714.09;1655195;85;20129;-82
2021/08/25 00:46:45;;;;;;;;;;;;;;;13.32;79.07;100714.13;1654062;86;21099;-85
2021/08/25 00:49:13;;;;;;;;;;;;;;;13.28;78.97;100709.14;1663342;85;20172;-87
2021/08/25 00:51:39;;;;;;;;;;;;;;;13.25;79.09;100710.78;1663662;85;20167;-87
2021/08/25 00:54:04;;;;;;;;;;;;;;;13.25;79.40;100710.78;1670903;84;20179;-87
2021/08/25 00:56:30;;;;;;;;;;;;;;;13.21;79.53;100713.41;1667761;85;20220;-83
2021/08/25 00:58:55;;;;;;;;;;;;;;;13.16;79.80;100711.73;1642768;84;21146;-83
2021/08/25 01:01:38;;;;;;;;;;;;;;;13.12;79.77;100711.70;1642581;85;21028;-87
2021/08/25 01:04:07;;;;;;;;;;;;;;;13.15;79.66;100708.73;1665222;85;20151;-87
2021/08/25 01:06:33;;;;;;;;;;;;;;;13.11;79.76;100699.42;1664332;84;20241;-88
2021/08/25 01:08:58;;;;;;;;;;;;;;;13.10;80.34;100699.11;1665507;84;20171;-86
2021/08/25 01:11:25;;;;;;;;;;;;;;;13.09;79.97;100698.27;1664376;86;21045;-88
2021/08/25 01:13:51;;;;;;;;;;;;;;;13.14;80.06;100696.46;1667760;84;20468;-88
2021/08/25 01:16:20;;;;;;;;;;;;;;;13.14;79.51;100699.11;1669750;84;20176;-85
2021/08/25 01:18:47;;;;;;;;;;;;;;;13.15;79.66;100691.50;1665243;84;20194;-88
2021/08/25 01:21:13;;;;;;;;;;;;;;;13.10;79.82;100692.48;1645079;86;20245;-88
2021/08/25 01:23:44;;;;;;;;;;;;;;;13.16;79.73;100699.80;1664620;84;21232;-88
2021/08/25 01:26:11;;;;;;;;;;;;;;;13.11;79.82;100700.28;1663964;84;20183;-87
2021/08/25 01:28:40;;;;;;;;;;;;;;;13.14;79.66;100699.62;1664483;84;20183;-88
2021/08/25 01:31:06;;;;;;;;;;;;;;;12.97;80.21;100696.88;1666584;84;20151;-86
2021/08/25 01:33:31;;;;;;;;;;;;;;;12.96;80.36;100701.02;1667751;84;20149;-88
2021/08/25 01:35:57;;;;;;;;;;;;;;;12.96;80.34;100702.34;1663999;84;21161;-85
2021/08/25 01:38:29;;;;;;;;;;;;;;;12.95;80.61;100702.84;1665177;84;20179;-88
2021/08/25 01:40:54;;;;;;;;;;;;;;;12.99;80.16;100700.70;1663604;84;20314;-86
2021/08/25 01:43:20;;;;;;;;;;;;;;;12.93;80.26;100697.70;1642740;85;20140;-84
2021/08/25 01:45:46;;;;;;;;;;;;;;;12.74;81.48;100697.95;1665641;86;20174;-84
2021/08/25 01:48:11;;;;;;;;;;;;;;;12.69;81.61;100695.77;1667485;84;21106;-83
2021/08/25 01:50:38;;;;;;;;;;;;;;;12.73;81.47;100697.09;1664720;84;20139;-86
2021/08/25 01:53:04;;;;;;;;;;;;;;;12.77;81.30;100697.63;1665024;84;20193;-86
2021/08/25 01:55:30;;;;;;;;;;;;;;;12.79;81.02;100698.30;1667159;84;20139;-87
2021/08/25 01:57:55;;;;;;;;;;;;;;;12.80;81.28;100696.47;1668487;84;20572;-86
2021/08/25 02:00:21;;;;;;;;;;;;;;;12.78;81.15;100692.64;1667265;84;22357;-86
2021/08/25 02:02:47;;;;;;;;;;;;;;;12.78;81.07;100688.67;1666934;86;20190;-86
2021/08/25 02:05:12;;;;;;;;;;;;;;;12.78;81.15;100691.32;1662971;84;20198;-86
2021/08/25 02:07:38;;;;;;;;;;;;;;;12.70;81.51;100684.66;1666030;85;20135;-87
2021/08/25 02:10:04;;;;;;;;;;;;;;;12.74;81.49;100692.64;1669045;86;20449;-89
2021/08/25 02:12:34;;;;;;;;;;;;;;;12.68;81.67;100688.79;1667274;84;21194;-86
2021/08/25 02:14:59;;;;;;;;;;;;;;;12.70;81.50;100683.33;1669856;83;20183;-88
2021/08/25 02:17:25;;;;;;;;;;;;;;;12.69;81.59;100681.66;1667123;84;20213;-89
2021/08/25 02:19:51;;;;;;;;;;;;;;;12.71;81.59;100682.36;1666818;84;20138;-88
2021/08/25 02:22:16;;;;;;;;;;;;;;;12.70;81.60;100678.03;1663179;84;20431;-87
2021/08/25 02:24:44;;;;;;;;;;;;;;;12.66;81.80;100674.02;1667959;84;21099;-88
2021/08/25 02:27:09;;;;;;;;;;;;;;;12.63;81.83;100673.02;1666373;84;20147;-87
2021/08/25 02:29:37;;;;;;;;;;;;;;;12.60;81.86;100669.35;1667575;84;20226;-84
2021/08/25 02:32:03;;;;;;;;;;;;;;;12.53;82.35;100666.00;1667689;86;20168;-88
2021/08/25 02:34:28;;;;;;;;;;;;;;;12.54;82.38;100657.58;1667940;85;20230;-86
2021/08/25 02:36:56;;;;;;;;;;;;;;;12.52;82.26;100660.39;1666960;84;22559;-89
2021/08/25 02:39:21;;;;;;;;;;;;;;;12.52;82.30;100657.73;1667028;84;20186;-88
2021/08/25 02:41:47;;;;;;;;;;;;;;;12.52;82.54;100657.73;1667694;84;20146;-89
2021/08/25 02:44:12;;;;;;;;;;;;;;;12.56;82.25;100653.77;1667681;84;20131;-83
2021/08/25 02:46:38;;;;;;;;;;;;;;;12.55;82.27;100651.27;1667129;86;20229;-88
2021/08/25 02:49:06;;;;;;;;;;;;;;;12.61;82.11;100655.13;1665701;84;21220;-86
2021/08/25 02:51:31;;;;;;;;;;;;;;;12.59;81.94;100646.52;1666391;84;20134;-88
2021/08/25 02:53:57;;;;;;;;;;;;;;;12.45;82.70;100651.39;1636595;84;20125;-87
2021/08/25 02:56:22;;;;;;;;;;;;;;;12.42;83.15;100645.08;1668127;84;20477;-88
2021/08/25 02:58:48;;;;;;;;;;;;;;;12.25;84.09;100642.81;1667194;84;20148;-88
2021/08/25 03:01:14;;;;;;;;;;;;;;;12.08;84.50;100649.80;1666045;84;21037;-86
2021/08/25 03:03:39;;;;;;;;;;;;;;;12.03;84.81;100646.80;1665373;85;20181;-85
2021/08/25 03:06:05;;;;;;;;;;;;;;;11.99;84.67;100640.13;1667662;84;20151;-87
2021/08/25 03:08:32;;;;;;;;;;;;;;;11.84;85.60;100645.95;1664598;86;20229;-88
2021/08/25 03:10:58;;;;;;;;;;;;;;;11.65;86.38;100636.36;1643051;84;20171;-88
2021/08/25 03:13:23;;;;;;;;;;;;;;;11.67;86.45;100636.20;1668527;86;21880;-86
2021/08/25 03:15:50;;;;;;;;;;;;;;;11.67;86.30;100631.73;1667688;84;20139;-83
2021/08/25 03:18:16;;;;;;;;;;;;;;;11.64;86.52;100625.93;1672029;84;20151;-87
2021/08/25 03:20:43;;;;;;;;;;;;;;;11.43;87.02;100631.00;1671057;84;20671;-87
2021/08/25 03:23:09;;;;;;;;;;;;;;;11.37;87.40;100631.59;1667218;84;20508;-87
2021/08/25 03:25:34;;;;;;;;;;;;;;;11.37;87.45;100628.95;1662714;84;21117;-85
2021/08/25 03:28:00;;;;;;;;;;;;;;;11.31;87.63;100626.91;1667322;84;20163;-86
2021/08/25 03:30:28;;;;;;;;;;;;;;;11.28;87.64;100620.63;1667752;84;20176;-86
2021/08/25 03:32:53;;;;;;;;;;;;;;;11.26;87.91;100619.92;1667609;84;21129;-88
2021/08/25 03:35:19;;;;;;;;;;;;;;;11.20;87.87;100614.76;1671185;84;20159;-86
2021/08/25 03:37:46;;;;;;;;;;;;;;;11.06;88.60;100617.41;1667265;85;21306;-89
2021/08/25 03:40:12;;;;;;;;;;;;;;;11.00;89.04;100623.28;1665324;85;20198;-90
2021/08/25 03:42:37;;;;;;;;;;;;;;;10.91;89.34;100627.63;1668251;85;20220;-89
2021/08/25 03:45:04;;;;;;;;;;;;;;;10.87;89.84;100634.67;1664555;86;20119;-87
2021/08/25 03:47:31;;;;;;;;;;;;;;;10.75;90.03;100632.23;1667009;84;20318;-85
2021/08/25 03:49:58;;;;;;;;;;;;;;;10.79;90.15;100628.80;1668435;84;21126;-84
2021/08/25 03:52:24;;;;;;;;;;;;;;;10.81;90.04;100627.33;1668208;84;20164;-82
2021/08/25 03:54:50;;;;;;;;;;;;;;;10.73;90.50;100628.88;1668619;84;21165;-86
2021/08/25 03:57:15;;;;;;;;;;;;;;;10.73;90.60;100627.55;1668077;84;20167;-87
2021/08/25 03:59:43;;;;;;;;;;;;;;;10.65;90.95;100630.59;1664325;85;20172;-90
2021/08/25 04:02:09;;;;;;;;;;;;;;;10.69;91.10;100624.88;1665604;84;20159;-88
2021/08/25 04:04:35;;;;;;;;;;;;;;;10.69;90.88;100623.56;1665526;86;20159;-88
2021/08/25 04:07:01;;;;;;;;;;;;;;;10.69;90.90;100622.70;1667342;84;20139;-88
2021/08/25 04:09:28;;;;;;;;;;;;;;;10.67;90.98;100619.39;1666219;84;20146;-88
2021/08/25 04:11:53;;;;;;;;;;;;;;;10.63;91.21;100616.22;1665305;84;20437;-90
2021/08/25 04:14:19;;;;;;;;;;;;;;;10.54;91.80;100626.33;1666569;85;21102;-88
2021/08/25 04:16:45;;;;;;;;;;;;;;;10.55;92.08;100624.86;1664326;84;21228;-90
2021/08/25 04:19:11;;;;;;;;;;;;;;;10.52;92.30;100621.69;1666627;84;20131;-90
2021/08/25 04:21:36;;;;;;;;;;;;;;;10.50;92.43;100621.83;1667834;84;20415;-90
2021/08/25 04:24:04;;;;;;;;;;;;;;;10.47;92.82;100623.91;1668748;84;21261;-84
2021/08/25 04:26:29;;;;;;;;;;;;;;;10.50;93.05;100620.98;1668177;84;21082;-88
2021/08/25 04:28:55;;;;;;;;;;;;;;;10.54;93.17;100620.55;1646600;86;20187;-88
2021/08/25 04:31:20;;;;;;;;;;;;;;;10.57;93.08;100619.44;1664275;84;20443;-88
2021/08/25 04:33:46;;;;;;;;;;;;;;;10.62;93.13;100621.64;1665704;86;20111;-86
2021/08/25 04:36:11;;;;;;;;;;;;;;;10.62;92.93;100619.83;1665960;84;20143;-86
2021/08/25 04:38:37;;;;;;;;;;;;;;;10.63;93.09;100617.53;1667929;85;21161;-87
2021/08/25 04:41:02;;;;;;;;;;;;;;;10.63;93.42;100629.42;1667725;84;20385;-87
2021/08/25 04:43:28;;;;;;;;;;;;;;;10.63;93.22;100628.10;1664754;86;20130;-85
2021/08/25 04:45:54;;;;;;;;;;;;;;;10.64;93.37;100627.10;1664172;84;20129;-86
2021/08/25 04:48:20;;;;;;;;;;;;;;;10.64;93.54;100628.42;1662698;84;20239;-85
2021/08/25 04:50:45;;;;;;;;;;;;;;;10.71;93.58;100620.28;1660812;85;21147;-86
2021/08/25 04:53:12;;;;;;;;;;;;;;;10.73;93.44;100624.09;1663035;86;20261;-86
2021/08/25 04:55:38;;;;;;;;;;;;;;;10.68;93.54;100624.53;1662897;84;20223;-89
2021/08/25 04:58:04;;;;;;;;;;;;;;;10.67;93.72;100623.35;1668439;86;20445;-88
2021/08/25 05:00:31;;;;;;;;;;;;;;;10.71;93.74;100624.23;1667570;84;20174;-86
2021/08/25 05:02:57;;;;;;;;;;;;;;;10.67;93.85;100622.03;1660659;84;21069;-88
2021/08/25 05:05:24;;;;;;;;;;;;;;;10.76;93.56;100619.34;1664149;84;20151;-85
2021/08/25 05:07:52;;;;;;;;;;;;;;;10.78;93.57;100613.44;1664414;86;20150;-85
2021/08/25 05:10:17;;;;;;;;;;;;;;;10.84;93.39;100611.19;1663055;84;20191;-89
2021/08/25 05:12:44;;;;;;;;;;;;;;;10.83;93.33;100609.52;1669226;84;20127;-87
2021/08/25 05:15:10;;;;;;;;;;;;;;;10.78;93.83;100612.12;1668738;84;21097;-91
2021/08/25 05:17:38;;;;;;;;;;;;;;;10.86;93.49;100610.54;1669893;84;20218;-86
2021/08/25 05:20:07;;;;;;;;;;;;;;;10.95;92.85;100602.59;1669601;84;20200;-87
2021/08/25 05:22:33;;;;;;;;;;;;;;;11.00;92.98;100607.42;1667482;84;20103;-85
2021/08/25 05:24:59;;;;;;;;;;;;;;;11.10;92.83;100602.08;1670293;84;20128;-86
2021/08/25 05:27:25;;;;;;;;;;;;;;;11.10;92.35;100600.25;1666709;85;21073;-89
2021/08/25 05:29:50;;;;;;;;;;;;;;;11.10;92.52;100604.22;1638279;86;20134;-91
2021/08/25 05:32:17;;;;;;;;;;;;;;;11.13;92.40;100598.64;1667375;84;20138;-90
2021/08/25 05:34:43;;;;;;;;;;;;;;;11.18;92.11;100599.52;1666806;84;20178;-87
2021/08/25 05:37:08;;;;;;;;;;;;;;;11.23;91.90;100597.28;1672060;84;20767;-89
2021/08/25 05:39:34;;;;;;;;;;;;;;;11.20;91.77;100594.08;1668849;84;21128;-87
2021/08/25 05:42:01;;;;;;;;;;;;;;;11.22;91.72;100594.78;1663858;84;20162;-88
2021/08/25 05:44:28;;;;;;;;;;;;;;;11.27;91.17;100593.83;1668610;84;20127;-88
2021/08/25 05:46:54;;;;;;;;;;;;;;;11.26;91.19;100594.33;1666981;86;20148;-85
2021/08/25 05:49:20;;;;;;;;;;;;;;;11.26;91.28;100593.48;1644066;85;20567;-86
2021/08/25 05:51:47;;;;;;;;;;;;;;;11.27;91.13;100588.05;1668557;84;21847;-84
2021/08/25 05:54:14;;;;;;;;;;;;;;;11.39;91.05;100584.70;1665108;84;20125;-86
2021/08/25 05:56:41;;;;;;;;;;;;;;;11.45;90.83;100585.89;1665548;84;20194;-87
2021/08/25 05:59:08;;;;;;;;;;;;;;;11.49;90.86;100588.59;1669291;84;20186;-87
2021/08/25 06:01:33;;;;;;;;;;;;;;;11.54;91.09;100588.12;1665797;84;20262;-88
2021/08/25 06:03:59;;;;;;;;;;;;;;;11.66;90.72;100586.91;1665269;84;21160;-88
2021/08/25 06:06:34;;;;;;;;;;;;;;;11.74;90.49;100586.16;1647770;86;20287;-88
2021/08/25 06:09:01;;;;;;;;;;;;;;;11.78;90.12;100590.98;1670856;84;20167;-87
2021/08/25 06:11:26;;;;;;;;;;;;;;;11.85;89.92;100584.11;1670347;84;20212;-91
2021/08/25 06:13:52;;;;;;;;;;;;;;;11.96;89.80;100587.50;1668041;86;20157;-91
2021/08/25 06:16:18;;;;;;;;;;;;;;;12.10;89.23;100584.79;1668079;86;21187;-87
2021/08/25 06:18:43;;;;;;;;;;;;;;;12.16;88.94;100588.96;1643554;86;20170;-90
2021/08/25 06:21:16;;;;;;;;;;;;;;;12.23;88.57;100579.07;1665942;84;20187;-90
2021/08/25 06:23:41;;;;;;;;;;;;;;;12.28;88.25;100583.42;1668204;84;20207;-91
2021/08/25 06:26:07;;;;;;;;;;;;;;;12.41;87.79;100588.29;1667472;84;20206;-90
2021/08/25 06:28:34;;;;;;;;;;;;;;;12.50;87.04;100585.52;1668338;84;21164;-90
2021/08/25 06:31:01;;;;;;;;;;;;;;;12.62;86.87;100582.61;1667563;84;20154;-89
2021/08/25 06:33:26;;;;;;;;;;;;;;;12.67;86.32;100580.31;1670351;86;20641;-91
2021/08/25 06:35:53;;;;;;;;;;;;;;;12.78;86.14;100585.31;1669621;84;20187;-89
2021/08/25 06:38:18;;;;;;;;;;;;;;;12.86;85.64;100587.16;1672160;84;20147;-82
2021/08/25 06:40:44;;;;;;;;;;;;;;;12.82;85.87;100588.47;1667311;82;21073;-88
2021/08/25 06:43:10;;;;;;;;;;;;;;;12.90;84.71;100580.05;1672834;83;20202;-83
2021/08/25 06:45:37;;;;;;;;;;;;;;;13.01;84.68;100578.11;1672023;83;20387;-83
2021/08/25 06:48:04;;;;;;;;;;;;;;;13.03;84.81;100583.56;1670633;84;20100;-86
2021/08/25 06:50:31;;;;;;;;;;;;;;;13.08;84.83;100584.41;1645893;86;20474;-89
2021/08/25 06:52:57;;;;;;;;;;;;;;;13.09;84.29;100582.09;1665916;84;21024;-91
2021/08/25 06:55:24;;;;;;;;;;;;;;;13.09;83.57;100578.12;1666857;84;20794;-86
2021/08/25 06:57:50;;;;;;;;;;;;;;;13.06;83.78;100577.94;1668439;84;20200;-85
2021/08/25 07:00:18;;;;;;;;;;;;;;;13.21;84.09;100567.55;1664368;84;20175;-88
2021/08/25 07:02:43;;;;;;;;;;;;;;;13.32;83.29;100557.62;1664419;85;20127;-87
2021/08/25 07:05:09;;;;;;;;;;;;;;;13.31;83.33;100561.26;1666088;84;21174;-87
2021/08/25 07:07:34;;;;;;;;;;;;;;;13.33;83.26;100557.49;1664152;84;20262;-88
2021/08/25 07:10:00;;;;;;;;;;;;;;;13.44;83.36;100562.47;1665599;85;20527;-87
2021/08/25 07:12:26;;;;;;;;;;;;;;;13.38;83.41;100562.31;1665310;84;21092;-88
2021/08/25 07:14:54;;;;;;;;;;;;;;;13.41;83.31;100564.62;1665473;84;20165;-87
2021/08/25 07:17:19;;;;;;;;;;;;;;;13.48;83.71;100557.65;1665569;84;21125;-89
2021/08/25 07:19:47;;;;;;;;;;;;;;;13.57;83.85;100557.17;1665189;85;20155;-90
2021/08/25 07:22:14;;;;;;;;;;;;;;;13.68;80.33;100558.66;1665992;84;20356;-85
2021/08/25 07:24:40;;;;;;;;;;;;;;;13.68;78.85;100550.70;1664830;84;20180;-86
2021/08/25 07:27:07;;;;;;;;;;;;;;;13.82;79.17;100546.03;1671543;84;20493;-88
2021/08/25 07:29:33;;;;;;;;;;;;;;;13.95;78.95;100548.17;1665291;84;20178;-88
2021/08/25 07:32:00;;;;;;;;;;;;;;;13.99;78.66;100544.19;1664456;84;20143;-83
2021/08/25 07:34:26;;;;;;;;;;;;;;;14.03;77.33;100543.34;1666523;84;20261;-86
2021/08/25 07:36:52;;;;;;;;;;;;;;;14.08;76.41;100533.06;1664938;85;20265;-89
2021/08/25 07:39:18;;;;;;;;;;;;;;;14.20;76.08;100533.03;1661306;86;20207;-87
2021/08/25 07:41:43;;;;;;;;;;;;;;;14.31;77.51;100530.00;1665812;84;21144;-86
2021/08/25 07:44:09;;;;;;;;;;;;;;;14.38;75.85;100531.46;1659643;84;20171;-87
2021/08/25 07:46:34;;;;;;;;;;;;;;;14.53;72.80;100520.95;1659399;84;20147;-91
2021/08/25 07:49:01;;;;;;;;;;;;;;;14.59;73.63;100524.25;1665569;84;20170;-88
2021/08/25 07:51:27;;;;;;;;;;;;;;;14.71;72.91;100517.58;1665330;84;20207;-86
2021/08/25 07:53:52;;;;;;;;;;;;;;;14.81;72.08;100517.34;1665172;84;21183;-83
2021/08/25 07:56:18;;;;;;;;;;;;;;;14.89;67.39;100509.31;1665997;84;20433;-91
2021/08/25 07:58:43;;;;;;;;;;;;;;;14.98;63.95;100504.78;1662628;86;20136;-90
2021/08/25 08:01:11;;;;;;;;;;;;;;;15.15;64.89;100507.31;1664276;84;20171;-91
2021/08/25 08:03:39;;;;;;;;;;;;;;;15.27;63.42;100501.91;1661633;84;20333;-91
2021/08/25 08:06:05;;;;;;;;;;;;;;;15.37;63.52;100500.35;1661228;84;21096;-88
2021/08/25 08:08:30;;;;;;;;;;;;;;;15.42;64.59;100498.78;1659648;84;20262;-86
2021/08/25 08:10:56;;;;;;;;;;;;;;;15.49;62.92;100500.73;1666020;84;20143;-89
2021/08/25 08:13:21;;;;;;;;;;;;;;;15.52;62.50;100498.56;1660736;84;20613;-86
2021/08/25 08:15:47;;;;;;;;;;;;;;;15.57;60.45;100499.35;1656277;84;20176;-83
2021/08/25 08:18:19;;;;;;;;;;;;;;;15.52;59.90;100509.69;1659996;86;21191;-85
2021/08/25 08:20:40;;;;;;;;;;;;;;;15.56;60.56;100494.51;1661535;84;20206;-87
2021/08/25 08:23:06;;;;;;;;;;;;;;;15.58;61.37;100499.66;1650552;84;20708;-83
2021/08/25 08:25:34;;;;;;;;;;;;;;;15.53;61.85;100498.05;1659292;84;21458;-85
2021/08/25 08:28:00;;;;;;;;;;;;;;;15.69;62.48;100503.23;1664508;84;20437;-85
2021/08/25 08:30:26;;;;;;;;;;;;;;;15.61;61.70;100496.63;1663957;84;21198;-85
2021/08/25 08:32:51;;;;;;;;;;;;;;;15.61;62.81;100493.97;1661513;84;20496;-83
2021/08/25 08:35:17;;;;;;;;;;;;;;;15.60;65.01;100491.00;1662533;86;20187;-86
2021/08/25 08:37:42;;;;;;;;;;;;;;;15.67;65.02;100489.25;1666403;84;20202;-85
2021/08/25 08:40:09;;;;;;;;;;;;;;;15.77;65.29;100485.05;1664952;84;20135;-82
2021/08/25 08:42:35;;;;;;;;;;;;;;;15.76;64.87;100476.19;1663828;86;21078;-84
2021/08/25 08:45:02;;;;;;;;;;;;;;;15.79;62.42;100473.19;1666316;86;20761;-84
2021/08/25 08:47:28;;;;;;;;;;;;;;;15.87;61.41;100469.61;1663530;84;20159;-85
2021/08/25 08:49:54;;;;;;;;;;;;;;;15.94;61.14;100464.37;1658564;84;20991;-87
2021/08/25 08:52:20;;;;;;;;;;;;;;;16.03;60.86;100465.94;1665201;86;20204;-87
2021/08/25 08:54:49;;;;;;;;;;;;;;;15.91;55.41;100459.41;1669594;84;21168;-84
2021/08/25 08:57:15;;;;;;;;;;;;;;;15.99;58.34;100464.67;1665273;84;20483;-85
2021/08/25 08:59:40;;;;;;;;;;;;;;;15.94;57.28;100459.05;1665762;84;20095;-86
2021/08/25 09:02:06;;;;;;;;;;;;;;;16.14;56.98;100452.17;1663794;84;20134;-85
2021/08/25 09:04:37;;;;;;;;;;;;;;;16.23;54.46;100444.06;1663291;84;20142;-85
2021/08/25 09:07:05;;;;;;;;;;;;;;;16.33;54.30;100445.42;1659749;84;21979;-84
2021/08/25 09:09:34;;;;;;;;;;;;;;;16.46;54.58;100439.42;1641495;86;20207;-83
2021/08/25 09:12:00;;;;;;;;;;;;;;;16.57;54.80;100435.44;1659576;84;20195;-88
2021/08/25 09:14:26;;;;;;;;;;;;;;;16.70;55.09;100433.41;1668903;86;20195;-87
2021/08/25 09:16:51;;;;;;;;;;;;;;;16.66;53.82;100431.64;1665372;85;20213;-82
2021/08/25 09:19:18;;;;;;;;;;;;;;;16.54;54.23;100427.00;1667969;86;21176;-83
2021/08/25 09:21:52;;;;;;;;;;;;;;;16.56;54.20;100432.95;1668176;86;20194;-86
2021/08/25 09:24:19;;;;;;;;;;;;;;;16.46;54.26;100426.09;1660740;86;20497;-84
2021/08/25 09:27:14;;;;;;;;;;;;;;;16.48;53.68;100437.41;1660227;84;20279;-83
2021/08/25 09:29:41;;;;;;;;;;;;;;;16.62;53.07;100422.35;1671524;84;20224;-86
2021/08/25 09:32:20;;;;;;;;;;;;;;;16.61;53.69;100428.72;1664662;84;22399;-82
2021/08/25 09:34:49;;;;;;;;;;;;;;;16.59;52.77;100423.25;1664047;84;20512;-86
2021/08/25 09:37:16;;;;;;;;;;;;;;;16.32;51.33;100430.44;1666343;84;20156;-83
2021/08/25 09:39:49;;;;;;;;;;;;;;;16.30;52.20;100415.67;1665058;84;20137;-83
2021/08/25 09:42:16;;;;;;;;;;;;;;;16.28;52.80;100415.01;1659783;84;20221;-82
2021/08/25 09:44:43;;;;;;;;;;;;;;;16.37;52.29;100407.22;1644938;84;21180;-82
2021/08/25 09:47:08;;;;;;;;;;;;;;;16.53;52.43;100406.67;1670194;84;20239;-87
2021/08/25 09:49:36;;;;;;;;;;;;;;;16.63;52.65;100407.20;1642681;85;20479;-83
2021/08/25 09:52:02;;;;;;;;;;;;;;;16.74;52.68;100396.02;1661269;84;20304;-85
2021/08/25 09:54:27;;;;;;;;;;;;;;;16.81;51.94;100402.25;1654445;86;20234;-82
2021/08/25 09:56:53;;;;;;;;;;;;;;;16.86;51.94;100394.53;1658709;85;21167;-84
2021/08/25 09:59:20;;;;;;;;;;;;;;;16.95;52.11;100382.38;1654686;84;20195;-85
2021/08/25 10:01:54;;;;;;;;;;;;;;;17.05;51.69;100379.70;1838808;76;20237;-89
2021/08/25 10:04:20;;;;;;;;;;;;;;;17.05;51.66;100385.03;1813111;77;20121;-90
2021/08/25 10:06:48;;;;;;;;;;;;;;;16.96;51.76;100377.38;1815944;77;20737;-82
2021/08/25 10:09:13;;;;;;;;;;;;;;;16.95;51.91;100371.71;1811652;77;20996;-83
2021/08/25 10:11:41;;;;;;;;;;;;;;;16.76;52.36;100372.64;1816138;77;20127;-83
2021/08/25 10:14:07;;;;;;;;;;;;;;;16.85;52.12;100372.02;1811567;77;20249;-83
2021/08/25 10:16:39;;;;;;;;;;;;;;;16.78;51.70;100369.30;1816609;77;20206;-83
2021/08/25 10:19:26;;;;;;;;;;;;;;;16.91;51.74;100364.61;1815324;77;21206;-83
2021/08/25 10:21:52;;;;;;;;;;;;;;;16.98;51.46;100362.84;1819905;77;20110;-79
2021/08/25 10:24:18;;;;;;;;;;;;;;;17.07;51.74;100356.83;1818348;77;20637;-78
2021/08/25 10:27:06;;;;;;;;;;;;;;;16.89;51.60;100359.14;1822172;77;20113;-78
2021/08/25 10:29:31;;;;;;;;;;;;;;;16.94;51.91;100355.41;1779280;77;20373;-78
2021/08/25 10:32:07;;;;;;;;;;;;;;;16.95;52.35;100351.70;1809184;77;21088;-78
2021/08/25 10:34:38;;;;;;;;;;;;;;;16.83;52.10;100344.20;1749247;80;20156;-79
2021/08/25 10:37:20;;;;;;;;;;;;;;;16.75;52.84;100354.17;1750400;80;20132;-78
2021/08/25 10:39:43;;;;;;;;;;;;;;;16.67;52.87;100343.13;1741555;80;20141;-78
2021/08/25 10:42:09;;;;;;;;;;;;;;;16.96;52.90;100333.36;1740601;80;20173;-80
2021/08/25 10:44:45;;;;;;;;;;;;;;;16.84;52.56;100332.52;1744075;82;21154;-79
2021/08/25 10:47:12;;;;;;;;;;;;;;;16.88;52.68;100326.84;1744584;81;20819;-79
2021/08/25 10:49:39;;;;;;;;;;;;;;;16.86;52.85;100331.84;1745378;80;20346;-80
2021/08/25 10:52:18;;;;;;;;;;;;;;;16.64;53.00;100327.51;1754453;80;20215;-80
2021/08/25 10:54:46;;;;;;;;;;;;;;;16.59;53.05;100333.94;1747865;81;20297;-80
2021/08/25 10:57:14;;;;;;;;;;;;;;;16.53;53.81;100318.70;1747008;80;21310;-81
2021/08/25 10:59:40;;;;;;;;;;;;;;;16.55;53.36;100316.69;1750436;80;20085;-77
2021/08/25 11:02:06;;;;;;;;;;;;;;;16.62;53.31;100314.89;1743334;81;20198;-78
2021/08/25 11:04:32;;;;;;;;;;;;;;;16.65;53.15;100309.17;1746842;81;20426;-78
2021/08/25 11:07:01;;;;;;;;;;;;;;;16.80;53.54;100297.91;1747574;81;20190;-79
2021/08/25 11:09:33;;;;;;;;;;;;;;;16.92;53.92;100302.25;1746364;81;20168;-78
2021/08/25 11:12:15;;;;;;;;;;;;;;;16.66;52.87;100304.16;1748725;81;20144;-78
2021/08/25 11:14:52;;;;;;;;;;;;;;;16.75;53.94;100292.34;1742993;81;20513;-77
2021/08/25 11:17:25;;;;;;;;;;;;;;;16.95;53.26;100298.35;1746322;80;20261;-83
2021/08/25 11:20:07;;;;;;;;;;;;;;;17.12;53.84;100291.72;1747463;81;20182;-80
2021/08/25 11:22:35;;;;;;;;;;;;;;;17.09;53.50;100282.77;1748874;81;21075;-78
2021/08/25 11:25:06;;;;;;;;;;;;;;;17.00;53.57;100283.94;1742612;81;20583;-78
2021/08/25 11:27:43;;;;;;;;;;;;;;;17.22;53.56;100271.34;1746906;81;20194;-79
2021/08/25 11:30:12;;;;;;;;;;;;;;;17.28;53.94;100264.40;1742113;81;20209;-79
2021/08/25 11:32:59;;;;;;;;;;;;;;;17.22;52.68;100265.48;1741752;81;20215;-79
2021/08/25 11:35:34;;;;;;;;;;;;;;;17.05;52.15;100272.16;1743749;81;21081;-78
2021/08/25 11:38:02;;;;;;;;;;;;;;;17.05;51.52;100267.64;1750713;80;20134;-80
2021/08/25 11:40:28;;;;;;;;;;;;;;;17.00;51.85;100262.08;1749382;81;20139;-78
2021/08/25 11:42:54;;;;;;;;;;;;;;;17.07;51.49;100262.11;1743433;80;20178;-76
2021/08/25 11:45:28;;;;;;;;;;;;;;;17.13;51.98;100254.66;1750321;81;20185;-80
2021/08/25 11:47:57;;;;;;;;;;;;;;;17.20;52.43;100252.86;1747760;81;20125;-83
2021/08/25 11:50:23;;;;;;;;;;;;;;;17.19;52.76;100255.20;1749101;81;20193;-79
2021/08/25 11:52:49;;;;;;;;;;;;;;;16.96;53.68;100266.14;1716721;81;20130;-79
2021/08/25 11:55:15;;;;;;;;;;;;;;;16.89;53.85;100263.11;1722554;81;21514;-79
2021/08/25 11:57:43;;;;;;;;;;;;;;;16.85;54.06;100256.80;1746344;81;20170;-78
2021/08/25 12:00:10;;;;;;;;;;;;;;;16.95;53.97;100251.66;1747639;81;21006;-79
2021/08/25 12:03:01;;;;;;;;;;;;;;;16.94;54.15;100250.85;1729807;82;20553;-79
2021/08/25 12:05:33;;;;;;;;;;;;;;;16.85;53.10;100248.80;1731987;82;20176;-78
2021/08/25 12:08:12;;;;;;;;;;;;;;;16.73;53.95;100239.69;1728347;82;20192;-80
2021/08/25 12:10:42;;;;;;;;;;;;;;;16.86;53.87;100233.67;1729905;81;20234;-80
2021/08/25 12:13:09;;;;;;;;;;;;;;;16.93;53.15;100220.37;1732883;81;21121;-81
2021/08/25 12:15:49;;;;;;;;;;;;;;;16.83;53.34;100227.37;1733478;81;20340;-79
2021/08/25 12:18:16;;;;;;;;;;;;;;;16.84;53.58;100217.84;1722452;82;20201;-79
2021/08/25 12:20:43;;;;;;;;;;;;;;;16.94;54.73;100219.36;1730956;81;20190;-78
2021/08/25 12:23:10;;;;;;;;;;;;;;;16.88;54.64;100213.47;1739739;82;20131;-79
2021/08/25 12:25:41;;;;;;;;;;;;;;;16.96;53.95;100206.64;1738702;82;21173;-78
2021/08/25 12:28:08;;;;;;;;;;;;;;;17.02;53.61;100204.52;1739008;82;20206;-80
2021/08/25 12:30:35;;;;;;;;;;;;;;;16.95;53.73;100203.65;1731227;82;20218;-78
2021/08/25 12:33:05;;;;;;;;;;;;;;;16.94;53.96;100200.69;1733044;82;20110;-80
2021/08/25 12:35:29;;;;;;;;;;;;;;;16.86;54.41;100198.48;1729997;81;20222;-80